createdAt,value
2022-08-07T00:02:36.921Z,54.45
2022-08-07T00:05:05.834Z,54.98
2022-08-07T00:07:40.216Z,55.38
2022-08-07T00:10:26.661Z,55.81
2022-08-07T00:13:00.968Z,56.39
2022-08-07T00:15:35.993Z,55.88
2022-08-07T00:18:06.785Z,56.23
2022-08-07T00:20:39.184Z,56.53
2022-08-07T00:23:08.163Z,56.78
2022-08-07T00:25:41.411Z,57.16
2022-08-07T00:28:10.755Z,57.50
2022-08-07T00:30:39.024Z,57.77
2022-08-07T00:33:09.443Z,58.19
2022-08-07T00:35:38.526Z,58.86
2022-08-07T00:38:06.464Z,59.33
2022-08-07T00:40:36.300Z,59.59
2022-08-07T00:44:01.467Z,59.87
2022-08-07T00:46:02.013Z,60.33
2022-08-07T00:48:31.981Z,61.34
2022-08-07T00:51:01.563Z,61.60
2022-08-07T00:53:38.517Z,61.89
2022-08-07T00:56:15.986Z,61.94
2022-08-07T00:58:47.434Z,62.20
2022-08-07T01:01:20.712Z,62.39
2022-08-07T01:03:55.675Z,62.59
2022-08-07T01:06:29.308Z,62.80
2022-08-07T01:09:01.232Z,63.15
2022-08-07T01:12:08.933Z,63.50
2022-08-07T01:14:28.852Z,63.63
2022-08-07T01:16:59.409Z,63.35
2022-08-07T01:19:32.076Z,63.53
2022-08-07T01:22:03.424Z,63.56
2022-08-07T01:24:42.329Z,64.15
2022-08-07T01:27:32.108Z,64.43
2022-08-07T01:30:00.615Z,64.38
2022-08-07T01:32:29.629Z,64.89
2022-08-07T01:35:02.089Z,64.89
2022-08-07T01:37:33.806Z,64.42
2022-08-07T01:40:06.270Z,64.70
2022-08-07T01:42:57.170Z,64.70
2022-08-07T01:45:36.374Z,63.90
2022-08-07T01:48:20.198Z,64.30
2022-08-07T01:51:24.043Z,65.34
2022-08-07T01:54:11.582Z,68.03
2022-08-07T01:56:53.214Z,68.90
2022-08-07T01:59:31.131Z,68.20
2022-08-07T02:02:10.711Z,66.70
2022-08-07T02:04:56.030Z,65.47
2022-08-07T02:07:44.942Z,64.88
2022-08-07T02:10:27.299Z,64.52
2022-08-07T02:13:00.348Z,64.43
2022-08-07T02:15:39.370Z,64.37
2022-08-07T02:18:13.879Z,64.39
2022-08-07T02:20:48.537Z,63.76
2022-08-07T02:23:24.140Z,63.46
2022-08-07T02:26:31.942Z,63.30
2022-08-07T02:28:44.809Z,63.65
2022-08-07T02:31:28.121Z,63.78
2022-08-07T02:34:02.841Z,64.24
2022-08-07T02:36:43.980Z,64.02
2022-08-07T02:39:43.738Z,64.10
2022-08-07T02:42:10.066Z,64.50
2022-08-07T02:44:48.327Z,64.97
2022-08-07T02:47:23.531Z,65.29
2022-08-07T02:50:00.060Z,65.60
2022-08-07T02:52:39.335Z,65.52
2022-08-07T02:55:28.784Z,65.58
2022-08-07T02:58:07.086Z,66.00
2022-08-07T03:00:41.045Z,66.20
2022-08-07T03:03:22.911Z,66.65
2022-08-07T03:05:56.870Z,66.59
2022-08-07T03:08:29.417Z,66.80
2022-08-07T03:11:01.754Z,66.93
2022-08-07T03:13:49.700Z,66.47
2022-08-07T03:16:23.035Z,66.69
2022-08-07T03:19:02.367Z,66.32
2022-08-07T03:21:34.450Z,66.56
2022-08-07T03:24:19.966Z,66.55
2022-08-07T03:27:00.865Z,66.62
2022-08-07T03:29:52.312Z,66.72
2022-08-07T03:32:33.930Z,66.83
2022-08-07T03:35:18.069Z,66.72
2022-08-07T03:37:55.325Z,66.21
2022-08-07T03:40:36.582Z,66.05
2022-08-07T03:43:14.371Z,66.59
2022-08-07T03:45:48.720Z,66.34
2022-08-07T03:48:22.844Z,66.14
2022-08-07T03:50:57.791Z,65.78
2022-08-07T03:54:01.930Z,65.53
2022-08-07T03:56:33.451Z,65.84
2022-08-07T03:59:09.831Z,65.97
2022-08-07T04:01:46.563Z,66.40
2022-08-07T04:04:19.849Z,66.55
2022-08-07T04:06:54.051Z,66.80
2022-08-07T04:09:25.415Z,66.32
2022-08-07T04:12:24.615Z,66.46
2022-08-07T04:14:56.645Z,66.35
2022-08-07T04:18:56.976Z,66.47
2022-08-07T04:20:14.545Z,66.84
2022-08-07T04:22:53.677Z,67.01
2022-08-07T04:25:24.175Z,67.19
2022-08-07T04:28:01.178Z,66.95
2022-08-07T04:30:36.034Z,66.44
2022-08-07T04:33:25.998Z,66.45
2022-08-07T04:35:56.680Z,66.37
2022-08-07T04:38:29.574Z,66.44
2022-08-07T04:40:59.664Z,66.81
2022-08-07T04:44:11.963Z,67.39
2022-08-07T04:47:08.784Z,68.32
2022-08-07T04:50:03.830Z,69.52
2022-08-07T04:52:51.113Z,70.53
2022-08-07T04:58:16.568Z,72.29
2022-08-07T04:58:49.761Z,72.12
2022-08-07T05:01:21.119Z,72.28
2022-08-07T05:04:17.762Z,73.61
2022-08-07T05:07:20.390Z,75.79
2022-08-07T05:10:04.635Z,76.32
2022-08-07T05:12:52.892Z,77.57
2022-08-07T05:15:27.411Z,76.46
2022-08-07T05:18:09.308Z,77.54
2022-08-07T05:20:45.256Z,78.39
2022-08-07T05:23:19.821Z,79.34
2022-08-07T05:26:15.579Z,80.08
2022-08-07T05:28:53.409Z,80.43
2022-08-07T05:31:34.545Z,80.50
2022-08-07T05:34:10.989Z,80.04
2022-08-07T05:36:44.501Z,79.98
2022-08-07T05:40:07.040Z,80.77
2022-08-07T05:42:33.700Z,78.42
2022-08-07T05:45:25.940Z,78.55
2022-08-07T05:48:01.762Z,80.09
2022-08-07T05:50:39.542Z,80.06
2022-08-07T05:54:09.680Z,80.35
2022-08-07T05:56:06.080Z,81.38
2022-08-07T05:58:41.825Z,82.01
2022-08-07T06:01:23.334Z,81.51
2022-08-07T06:04:01.102Z,81.05
2022-08-07T06:06:37.279Z,80.21
2022-08-07T06:09:09.697Z,80.06
2022-08-07T06:11:44.190Z,80.86
2022-08-07T06:14:20.986Z,80.67
2022-08-07T06:16:57.121Z,80.38
2022-08-07T06:19:48.014Z,80.11
2022-08-07T06:22:24.068Z,80.18
2022-08-07T06:25:16.939Z,80.15
2022-08-07T06:28:01.410Z,79.52
2022-08-07T06:30:35.326Z,79.80
2022-08-07T06:33:15.613Z,79.82
2022-08-07T06:36:06.250Z,80.72
2022-08-07T06:38:35.770Z,79.67
2022-08-07T06:41:12.837Z,79.26
2022-08-07T06:43:59.259Z,79.48
2022-08-07T06:46:35.218Z,78.44
2022-08-07T06:49:05.090Z,78.61
2022-08-07T06:51:49.401Z,78.57
2022-08-07T21:21:04.636Z,63.72
2022-08-07T21:23:50.247Z,64.12
2022-08-07T21:26:34.693Z,64.38
2022-08-07T21:29:19.512Z,64.53
2022-08-07T21:32:43.558Z,64.96
2022-08-07T21:35:34.713Z,64.60
2022-08-07T21:38:27.932Z,64.27
2022-08-07T21:41:38.137Z,63.71
2022-08-07T21:44:30.625Z,63.24
2022-08-07T21:47:31.952Z,62.94
2022-08-07T21:50:08.535Z,63.09
2022-08-07T21:53:18.470Z,63.32
2022-08-07T21:56:51.949Z,63.21
2022-08-07T22:00:05.188Z,62.43
2022-08-07T22:02:49.066Z,62.73
2022-08-07T22:05:44.419Z,62.88
2022-08-07T22:08:18.541Z,63.01
2022-08-07T22:10:57.310Z,64.65
2022-08-07T22:13:52.102Z,65.04
2022-08-07T22:16:42.807Z,65.60
2022-08-07T22:19:36.972Z,65.54
2022-08-07T22:22:27.597Z,65.63
2022-08-07T22:25:12.196Z,65.19
2022-08-07T22:28:08.055Z,65.06
2022-08-07T22:31:59.291Z,64.86
2022-08-07T22:34:35.847Z,65.17
2022-08-07T22:37:09.273Z,65.22
2022-08-07T22:40:18.996Z,64.91
2022-08-07T22:42:52.296Z,65.01
2022-08-07T22:46:04.619Z,65.18
2022-08-07T22:49:02.083Z,65.25
2022-08-07T22:52:36.686Z,64.36
2022-08-07T22:55:30.161Z,64.63
2022-08-07T22:58:17.475Z,65.06
2022-08-07T23:01:08.110Z,65.48
2022-08-07T23:03:57.929Z,67.95
2022-08-07T23:06:51.295Z,70.50
2022-08-07T23:10:00.681Z,69.81
2022-08-07T23:12:46.761Z,71.67
2022-08-07T23:16:06.452Z,70.94
2022-08-07T23:19:14.016Z,71.77
2022-08-07T23:21:58.148Z,72.49
2022-08-07T23:28:21.412Z,71.71
2022-08-07T23:31:11.606Z,70.17
2022-08-07T23:34:36.479Z,70.67
2022-08-07T23:37:19.225Z,69.88
2022-08-07T23:40:07.547Z,69.47
2022-08-07T23:43:16.941Z,68.86
2022-08-07T23:46:10.668Z,68.34
2022-08-07T23:49:08.705Z,67.57
2022-08-07T23:53:01.866Z,66.19
2022-08-07T23:54:58.251Z,65.23
2022-08-07T23:58:06.660Z,63.37
